createdAt,value
2023-01-12T00:25:23.378Z,9.93
2023-01-12T00:27:51.522Z,7.38
2023-01-12T00:30:18.700Z,7.50
2023-01-12T00:32:45.744Z,6.63
2023-01-12T00:35:26.633Z,6.50
2023-01-12T00:37:53.763Z,8.98
2023-01-12T00:40:20.690Z,9.75
2023-01-12T00:52:55.228Z,8.70
2023-01-12T00:55:22.515Z,3.83
2023-01-12T00:57:49.577Z,6.97
2023-01-12T01:00:17.737Z,8.50
2023-01-12T01:02:44.928Z,7.22
2023-01-12T01:05:12.407Z,8.35
2023-01-12T01:07:39.747Z,4.65
2023-01-12T01:10:07.558Z,5.55
2023-01-12T01:12:34.589Z,4.45
2023-01-12T01:15:01.694Z,4.85
2023-01-12T01:17:29.305Z,4.05
2023-01-12T01:19:56.687Z,6.63
2023-01-12T01:22:23.824Z,6.93
2023-01-12T01:24:50.915Z,5.93
2023-01-12T01:27:18.106Z,4.85
2023-01-12T01:29:45.116Z,10.07
2023-01-12T01:32:12.156Z,7.32
2023-01-12T01:34:39.397Z,7.40
2023-01-12T01:37:06.356Z,3.45
2023-01-12T01:39:33.332Z,3.75
2023-01-12T02:06:25.889Z,8.15
2023-01-12T02:09:08.643Z,1.77
2023-01-12T02:25:18.430Z,7.20
2023-01-12T02:34:29.470Z,7.15
2023-01-12T02:52:48.825Z,5.53
2023-01-12T02:55:18.378Z,6.80
2023-01-12T02:57:46.720Z,9.23
2023-01-12T03:00:18.403Z,7.07
2023-01-12T03:02:45.562Z,8.50
2023-01-12T03:05:16.159Z,7.53
2023-01-12T03:07:58.754Z,6.20
2023-01-12T03:11:03.505Z,9.25
2023-01-12T03:13:34.501Z,10.05
2023-01-12T03:16:04.551Z,10.70
2023-01-12T03:18:51.337Z,5.93
2023-01-12T03:21:38.803Z,8.75
2023-01-12T03:24:25.484Z,7.85
2023-01-12T03:27:03.866Z,9.77
2023-01-12T03:34:11.047Z,14.80
2023-01-12T03:42:09.352Z,10.98
2023-01-12T03:44:41.457Z,8.65
2023-01-12T03:48:20.987Z,13.40
2023-01-12T03:51:20.928Z,10.05
2023-01-12T03:54:13.857Z,6.88
2023-01-12T03:57:32.973Z,7.03
2023-01-12T04:04:39.321Z,6.18
2023-01-12T04:07:09.077Z,8.98
2023-01-12T04:09:37.590Z,7.53
2023-01-12T04:12:11.193Z,6.25
2023-01-12T04:14:47.757Z,5.18
2023-01-12T04:17:16.098Z,6.30
2023-01-12T04:19:43.285Z,3.05
2023-01-12T04:22:34.572Z,6.88
2023-01-12T04:25:02.054Z,6.88
2023-01-12T04:27:29.154Z,7.88
2023-01-12T04:29:56.829Z,9.80
2023-01-12T04:32:24.100Z,9.90
2023-01-12T04:34:51.297Z,7.93
2023-01-12T04:37:18.939Z,10.30
2023-01-12T04:39:46.103Z,4.78
2023-01-12T04:42:31.656Z,5.88
2023-01-12T04:44:59.019Z,8.82
2023-01-12T04:47:26.236Z,8.52
2023-01-12T04:49:53.442Z,13.10
2023-01-12T04:52:20.652Z,7.93
2023-01-12T04:54:47.854Z,3.88
2023-01-12T04:57:15.108Z,7.10
2023-01-12T04:59:42.238Z,5.95
2023-01-12T05:02:09.655Z,6.22
2023-01-12T05:04:36.750Z,9.27
2023-01-12T05:07:03.973Z,10.43
2023-01-12T05:09:49.555Z,10.70
2023-01-12T05:12:16.592Z,8.00
2023-01-12T05:14:43.728Z,13.68
2023-01-12T05:17:10.845Z,4.80
2023-01-12T05:19:38.321Z,8.90
2023-01-12T05:22:05.489Z,10.77
2023-01-12T05:24:32.920Z,11.65
2023-01-12T05:27:01.657Z,5.60
2023-01-12T05:29:33.587Z,13.10
2023-01-12T05:32:00.978Z,6.00
2023-01-12T05:34:28.038Z,7.05
2023-01-12T05:36:55.156Z,10.02
2023-01-12T05:39:22.208Z,2.88
2023-01-12T05:42:08.013Z,8.82
2023-01-12T05:44:35.245Z,9.25
2023-01-12T05:47:02.304Z,5.97
2023-01-12T05:49:29.555Z,6.25
2023-01-12T05:51:56.625Z,8.60
2023-01-12T05:54:24.778Z,12.68
2023-01-12T05:56:51.883Z,7.75
2023-01-12T06:04:18.869Z,5.53
2023-01-12T06:09:50.569Z,5.82
2023-01-12T06:11:32.687Z,8.35
2023-01-12T06:14:01.320Z,8.05
2023-01-12T06:16:29.927Z,9.18
2023-01-12T06:18:57.493Z,4.60
2023-01-12T06:21:25.601Z,3.47
2023-01-12T06:23:53.297Z,8.77
2023-01-12T06:26:20.374Z,14.02
2023-01-12T06:28:47.483Z,7.40
2023-01-12T06:31:14.576Z,10.45
2023-01-12T06:33:43.527Z,9.27
2023-01-12T06:36:11.386Z,11.43
2023-01-12T06:38:38.968Z,6.00
2023-01-12T06:41:33.549Z,13.25
2023-01-12T06:44:00.834Z,14.18
2023-01-12T06:46:28.374Z,12.63
2023-01-12T06:48:57.353Z,4.30
2023-01-12T06:51:25.775Z,5.72
2023-01-12T06:53:55.226Z,6.30
2023-01-12T06:56:22.990Z,9.27
2023-01-12T06:58:50.088Z,9.90
2023-01-12T07:01:17.356Z,10.60
2023-01-12T07:03:45.750Z,8.88
2023-01-12T07:06:14.394Z,6.90
2023-01-12T07:08:41.551Z,6.07
2023-01-12T07:11:08.812Z,11.00
2023-01-12T07:13:39.194Z,10.18
2023-01-12T07:16:07.342Z,7.40
2023-01-12T07:18:47.316Z,6.93
2023-01-12T07:21:16.797Z,7.13
2023-01-12T07:23:44.116Z,9.35
2023-01-12T07:26:12.311Z,5.00
2023-01-12T07:28:39.704Z,7.55
2023-01-12T07:31:07.632Z,7.50
2023-01-12T07:33:36.722Z,9.20
2023-01-12T07:36:04.597Z,8.10
2023-01-12T07:38:32.269Z,6.45
2023-01-12T07:41:03.982Z,4.22
2023-01-12T07:43:33.503Z,10.83
2023-01-12T07:46:00.980Z,5.18
2023-01-12T07:48:28.208Z,4.32
2023-01-12T07:50:59.101Z,7.07
2023-01-12T07:53:26.549Z,5.28
2023-01-12T07:55:53.603Z,5.60
2023-01-12T07:58:21.167Z,8.65
2023-01-12T08:00:48.241Z,7.93
2023-01-12T08:03:15.507Z,8.70
2023-01-12T08:05:42.714Z,6.82
2023-01-12T08:08:09.969Z,7.13
2023-01-12T08:10:37.069Z,7.22
2023-01-12T08:13:04.087Z,2.90
2023-01-12T08:15:39.953Z,9.82
2023-01-12T08:18:17.419Z,7.47
2023-01-12T08:20:45.060Z,6.88
2023-01-12T08:23:21.999Z,9.23
2023-01-12T08:25:56.580Z,7.72
2023-01-12T08:28:34.104Z,10.80
2023-01-12T08:31:01.638Z,6.22
2023-01-12T08:33:29.031Z,3.88
2023-01-12T08:35:56.299Z,6.68
2023-01-12T08:38:23.824Z,8.10
2023-01-12T08:41:09.448Z,6.22
2023-01-12T09:16:11.259Z,8.35
2023-01-12T09:18:40.253Z,4.35
2023-01-12T09:21:11.389Z,6.70
2023-01-12T09:23:39.405Z,7.68
2023-01-12T09:29:56.491Z,4.25
2023-01-12T09:32:29.206Z,7.35
2023-01-12T09:35:03.228Z,6.25
2023-01-12T09:37:54.088Z,5.10
2023-01-12T09:40:21.547Z,6.20
2023-01-12T09:43:10.274Z,5.38
2023-01-12T09:54:54.763Z,5.50
2023-01-12T09:57:48.691Z,7.28
2023-01-12T10:00:18.242Z,7.13
2023-01-12T10:02:55.203Z,2.72
2023-01-12T10:05:44.252Z,5.45
2023-01-12T10:08:23.011Z,5.00
2023-01-12T10:11:17.632Z,5.25
2023-01-12T10:42:36.873Z,8.73
2023-01-12T10:45:16.426Z,5.32
2023-01-12T10:47:45.996Z,2.75
2023-01-12T10:50:28.754Z,7.53
2023-01-12T10:53:06.497Z,5.20
2023-01-12T10:55:40.438Z,5.22
2023-01-12T10:58:32.532Z,2.65
2023-01-12T11:01:53.102Z,4.80
2023-01-12T11:05:45.757Z,3.28
2023-01-12T11:08:28.838Z,5.82
2023-01-12T11:10:56.060Z,2.80
2023-01-12T11:13:36.458Z,4.45
2023-01-12T11:17:14.991Z,5.93
2023-01-12T11:19:45.778Z,3.58
2023-01-12T11:22:27.620Z,2.83
2023-01-12T11:25:17.503Z,3.43
2023-01-12T11:27:55.354Z,5.43
2023-01-12T11:30:29.776Z,1.50
2023-01-12T11:33:08.720Z,2.28
2023-01-12T11:35:47.249Z,4.55
2023-01-12T11:38:25.324Z,4.22
2023-01-12T11:40:58.620Z,5.20
2023-01-12T11:43:49.392Z,2.92
2023-01-12T11:46:42.531Z,3.65
2023-01-12T11:52:43.259Z,5.95
2023-01-12T11:55:16.975Z,2.78
2023-01-12T11:58:08.700Z,6.30
2023-01-12T12:01:04.885Z,5.18
2023-01-12T12:03:59.460Z,4.18
2023-01-12T12:07:31.735Z,6.55
2023-01-12T12:10:11.013Z,3.70
2023-01-12T12:13:05.505Z,2.88
2023-01-12T12:16:00.690Z,0.65
2023-01-12T12:18:30.552Z,2.15
2023-01-12T12:21:18.610Z,8.05
2023-01-12T12:24:19.721Z,4.97
2023-01-12T12:27:26.705Z,3.95
2023-01-12T12:30:41.483Z,4.07
2023-01-12T12:33:51.603Z,2.85
2023-01-12T12:36:49.983Z,1.45
2023-01-12T12:39:45.944Z,3.67
2023-01-12T12:43:04.018Z,3.03
2023-01-12T12:46:02.944Z,4.55
2023-01-12T12:48:47.220Z,2.40
2023-01-12T12:51:15.583Z,1.38
2023-01-12T12:54:17.190Z,4.25
2023-01-12T12:56:49.098Z,2.00
2023-01-12T12:59:43.909Z,3.50
2023-01-12T13:02:51.083Z,1.10
2023-01-12T13:05:43.846Z,1.75
2023-01-12T13:08:22.967Z,2.58
2023-01-12T13:10:57.663Z,1.88
2023-01-12T13:13:35.124Z,3.78
2023-01-12T13:16:41.585Z,0.70
2023-01-12T13:19:35.124Z,3.55
2023-01-12T13:22:55.064Z,4.40
2023-01-12T13:25:34.862Z,2.88
2023-01-12T13:28:02.214Z,1.38
2023-01-12T13:30:29.334Z,3.67
2023-01-12T13:33:14.792Z,3.33
2023-01-12T13:35:44.950Z,2.30
2023-01-12T13:38:34.353Z,6.00
2023-01-12T13:41:13.566Z,4.78
2023-01-12T13:43:55.481Z,0.98
2023-01-12T13:46:30.831Z,2.10
2023-01-12T13:48:58.756Z,3.97
2023-01-12T13:51:41.255Z,1.17
2023-01-12T13:54:15.906Z,3.22
2023-01-12T13:56:54.817Z,1.85
2023-01-12T13:59:22.136Z,2.00
2023-01-12T14:01:49.362Z,1.38
2023-01-12T14:04:20.072Z,1.55
2023-01-12T14:07:18.837Z,0.88
2023-01-12T14:10:01.169Z,2.58
2023-01-12T14:13:05.583Z,0.43
2023-01-12T14:16:02.598Z,2.47
2023-01-12T14:18:44.499Z,2.92
2023-01-12T14:21:29.128Z,1.95
2023-01-12T14:24:17.553Z,2.05
2023-01-12T14:26:44.712Z,5.53
2023-01-12T14:29:21.133Z,3.00
2023-01-12T14:32:01.709Z,0.73
2023-01-12T14:35:17.639Z,1.15
2023-01-12T14:38:05.576Z,1.08
2023-01-12T14:41:52.579Z,0.45
2023-01-12T14:45:43.880Z,3.17
2023-01-12T14:48:29.045Z,1.40
2023-01-12T14:51:10.799Z,4.57
2023-01-12T14:53:43.082Z,2.22
2023-01-12T14:56:22.763Z,0.93
2023-01-12T14:58:50.423Z,1.85
2023-01-12T15:01:35.186Z,3.13
2023-01-12T15:04:05.739Z,1.35
2023-01-12T15:06:39.636Z,2.58
2023-01-12T15:09:37.347Z,2.67
2023-01-12T15:12:30.497Z,1.33
2023-01-12T15:15:23.136Z,2.15
2023-01-12T15:18:29.380Z,2.28
2023-01-12T15:21:14.895Z,2.33
2023-01-12T15:24:00.975Z,1.20
2023-01-12T15:26:39.170Z,1.00
2023-01-12T15:29:06.193Z,4.53
2023-01-12T15:31:36.847Z,1.58
2023-01-12T15:34:06.301Z,1.85
2023-01-12T15:36:33.371Z,3.28
2023-01-12T15:39:00.415Z,0.98
2023-01-12T15:41:49.549Z,3.65
2023-01-12T15:44:32.008Z,0.57
2023-01-12T15:47:07.670Z,1.75
2023-01-12T15:49:34.788Z,0.93
2023-01-12T15:52:02.419Z,1.35
2023-01-12T15:54:29.413Z,0.80
2023-01-12T15:56:59.445Z,3.20
2023-01-12T15:59:26.665Z,2.70
2023-01-12T16:01:53.745Z,5.63
2023-01-12T16:04:42.236Z,2.83
2023-01-12T16:07:10.057Z,2.20
2023-01-12T16:09:37.006Z,2.60
2023-01-12T16:12:04.489Z,2.92
2023-01-12T16:14:31.506Z,2.38
2023-01-12T16:16:58.593Z,1.73
2023-01-12T16:19:26.365Z,1.33
2023-01-12T16:21:55.037Z,1.45
2023-01-12T16:24:24.163Z,1.85
2023-01-12T16:26:51.287Z,5.40
2023-01-12T16:29:19.287Z,2.08
2023-01-12T16:31:46.838Z,0.93
2023-01-12T16:34:13.863Z,2.20
2023-01-12T16:36:41.438Z,2.92
2023-01-12T16:39:12.500Z,2.10
2023-01-12T16:41:39.714Z,3.00
2023-01-12T16:44:06.679Z,2.28
2023-01-12T16:46:33.947Z,4.25
2023-01-12T16:49:03.969Z,2.63
2023-01-12T16:51:34.178Z,2.05
2023-01-12T16:54:02.751Z,1.13
2023-01-12T16:56:29.825Z,2.30
2023-01-12T16:58:57.690Z,1.77
2023-01-12T17:01:28.171Z,2.55
2023-01-12T17:03:58.638Z,1.20
2023-01-12T17:06:30.897Z,1.90
2023-01-12T17:09:01.897Z,3.38
2023-01-12T17:11:30.619Z,3.95
2023-01-12T17:13:58.335Z,0.90
2023-01-12T17:16:30.826Z,1.98
2023-01-12T17:21:25.133Z,0.93
2023-01-12T17:23:52.383Z,0.73
2023-01-12T17:26:19.848Z,1.65
2023-01-12T17:28:47.772Z,1.85
2023-01-12T17:31:19.226Z,2.25
2023-01-12T17:33:46.780Z,1.42
2023-01-12T17:36:14.523Z,2.00
2023-01-12T17:38:41.688Z,1.85
2023-01-12T17:41:34.215Z,2.65
2023-01-12T17:44:05.513Z,1.70
2023-01-12T17:46:34.421Z,1.30
2023-01-12T17:49:05.741Z,2.17
2023-01-12T17:51:34.564Z,3.30
2023-01-12T17:54:05.043Z,4.93
2023-01-12T17:56:37.014Z,2.13
2023-01-12T17:59:05.504Z,2.42
2023-01-12T18:01:36.073Z,2.95
2023-01-12T18:04:04.189Z,2.78
2023-01-12T18:06:31.898Z,2.15
2023-01-12T18:09:02.338Z,2.78
2023-01-12T18:11:31.333Z,3.13
2023-01-12T18:13:59.896Z,1.70
2023-01-12T18:16:28.061Z,2.97
2023-01-12T18:18:55.485Z,2.38
2023-01-12T18:21:30.896Z,3.45
2023-01-12T18:24:38.878Z,2.17
2023-01-12T18:27:06.438Z,2.88
2023-01-12T18:29:33.636Z,3.35
2023-01-12T18:32:00.807Z,0.77
2023-01-12T18:34:28.511Z,1.80
2023-01-12T18:36:55.676Z,2.50
2023-01-12T18:39:23.121Z,1.38
2023-01-12T18:42:09.629Z,0.73
2023-01-12T18:44:38.488Z,1.30
2023-01-12T18:47:25.146Z,2.95
2023-01-12T18:49:57.463Z,3.15
2023-01-12T18:52:43.415Z,1.15
2023-01-12T18:55:10.640Z,3.00
2023-01-12T18:57:37.877Z,1.15
2023-01-12T19:00:16.478Z,1.60
2023-01-12T19:02:44.534Z,1.75
2023-01-12T19:05:31.659Z,2.92
2023-01-12T19:07:58.732Z,2.17
2023-01-12T19:10:27.985Z,1.33
2023-01-12T19:13:15.577Z,2.65
2023-01-12T19:16:01.571Z,1.50
2023-01-12T19:18:29.047Z,0.90
2023-01-12T19:21:22.661Z,2.67
2023-01-12T19:24:08.618Z,1.63
2023-01-12T19:42:30.400Z,1.23
2023-01-12T19:42:52.250Z,1.38
2023-01-12T19:48:16.926Z,1.70
2023-01-12T19:54:02.452Z,2.38
2023-01-12T19:56:57.259Z,1.25
2023-01-12T19:59:38.149Z,1.73
2023-01-12T20:02:05.985Z,0.93
2023-01-12T20:04:33.064Z,1.77
2023-01-12T20:07:00.076Z,1.80
2023-01-12T20:09:27.908Z,2.80
2023-01-12T20:11:55.337Z,2.17
2023-01-12T20:14:22.614Z,1.30
2023-01-12T20:16:50.443Z,1.52
2023-01-12T20:19:20.825Z,3.30
2023-01-12T20:21:48.951Z,2.10
2023-01-12T20:24:16.314Z,0.88
2023-01-12T20:26:43.432Z,2.20
2023-01-12T20:29:10.568Z,0.60
2023-01-12T20:31:39.873Z,3.20
2023-01-12T20:34:24.763Z,2.75
2023-01-12T20:36:51.748Z,0.50
2023-01-12T20:39:18.945Z,0.68
2023-01-12T20:41:58.487Z,1.27
2023-01-12T20:44:34.155Z,1.67
2023-01-12T20:47:02.135Z,3.00
2023-01-12T20:49:29.161Z,1.33
2023-01-12T20:52:03.595Z,0.93
2023-01-12T20:54:54.334Z,1.48
2023-01-12T20:57:21.942Z,1.92
2023-01-12T21:02:30.712Z,0.98
2023-01-12T21:04:57.789Z,2.72
2023-01-12T21:07:25.028Z,2.42
2023-01-12T21:09:52.200Z,4.10
2023-01-12T21:12:19.673Z,2.83
2023-01-12T21:14:46.707Z,1.70
2023-01-12T21:17:13.792Z,0.32
2023-01-12T21:19:40.954Z,1.70
2023-01-12T21:22:08.228Z,0.80
2023-01-12T21:24:35.318Z,0.20
2023-01-12T21:27:02.296Z,0.70
2023-01-12T21:29:29.428Z,1.02
2023-01-12T21:31:58.098Z,0.45
2023-01-12T21:34:25.269Z,0.73
2023-01-12T21:36:52.327Z,1.80
2023-01-12T21:39:19.407Z,1.08
2023-01-12T21:42:05.512Z,1.40
2023-01-12T21:44:34.201Z,0.90
2023-01-12T21:47:01.335Z,0.77
2023-01-12T21:49:28.939Z,0.52
2023-01-12T21:51:56.218Z,0.80
2023-01-12T21:54:23.358Z,2.08
2023-01-12T21:56:50.473Z,0.30
2023-01-12T21:59:18.492Z,0.85
2023-01-12T22:01:45.917Z,7.80
2023-01-12T22:04:13.091Z,1.20
2023-01-12T22:06:40.113Z,2.03
2023-01-12T22:09:07.235Z,0.73
2023-01-12T22:11:34.408Z,0.95
2023-01-12T22:14:01.565Z,1.80
2023-01-12T22:16:28.625Z,2.17
2023-01-12T22:18:56.106Z,1.05
2023-01-12T22:21:23.299Z,1.55
2023-01-12T22:23:50.357Z,1.00
2023-01-12T22:26:20.783Z,0.32
2023-01-12T22:28:48.985Z,0.80
2023-01-12T22:31:29.520Z,0.47
2023-01-12T22:34:06.913Z,0.65
2023-01-12T22:36:43.002Z,1.25
2023-01-12T22:39:13.617Z,1.02
2023-01-12T22:41:41.159Z,0.88
2023-01-12T22:44:08.429Z,0.28
2023-01-12T22:46:36.886Z,0.75
2023-01-12T22:49:03.914Z,0.40
2023-01-12T22:51:31.340Z,0.77
2023-01-12T22:53:58.508Z,0.77
2023-01-12T22:56:26.086Z,1.60
2023-01-12T22:58:55.292Z,1.55
2023-01-12T23:01:28.075Z,0.98
2023-01-12T23:03:58.113Z,0.93
2023-01-12T23:06:26.922Z,0.35
2023-01-12T23:08:54.263Z,0.20
2023-01-12T23:11:26.732Z,0.32
2023-01-12T23:16:25.894Z,1.63
2023-01-12T23:18:55.202Z,0.75
2023-01-12T23:21:27.941Z,3.03
2023-01-12T23:24:00.265Z,1.40
2023-01-12T23:26:32.529Z,3.22
2023-01-12T23:29:03.281Z,1.02
2023-01-12T23:31:33.472Z,0.57
2023-01-12T23:34:45.558Z,0.68
2023-01-12T23:37:12.820Z,0.65
2023-01-12T23:39:40.092Z,1.30
2023-01-12T23:42:12.305Z,1.25
2023-01-12T23:47:24.659Z,0.70
2023-01-12T23:50:07.612Z,0.50
2023-01-12T23:53:07.929Z,1.85
2023-01-12T23:55:39.663Z,0.95
2023-01-12T23:59:00.259Z,2.45
